West Plattsburgh, New York
Current Conditions -  °F | °C
As of 5:53 PM on Tuesday 25 Nov 2014 (Local Time) from KPBG Reporting Station
Broken Clouds Broken Clouds  
Wind Chill: 40°   Ceiling: 6500
Heat Index: 43°   Visibility: 10mi
Dew Point: 25°   Wind: 5mph
Humidity: 49%   Direction: NA
Pressure: 29.95"   Gusts: NA
Location:  44.6612°N, 73.5979°W
Report Text: KPBG 252253Z AUTO VRB04KT 10SM BKN065 06/M04 A2995 RMK AO2 SLP142 T00611039
Loading
Personal Weather Stations






























Interactive Weather Map New forecast layout! Learn more

10-Day Weather Forecast

Advertisements
Track Severe Weather on mobile